sensor_id;sensor_type;location;lat;lon;timestamp;P1;durP1;ratioP1;P2;durP2;ratioP2
61473;SDS011;53694;49.784;30.150;2022-07-29T00:00:15;9.43;;;4.49;;
61473;SDS011;53694;49.784;30.150;2022-07-29T00:01:17;11.31;;;4.76;;
61473;SDS011;53694;49.784;30.150;2022-07-29T00:02:19;9.10;;;4.69;;
61473;SDS011;53694;49.784;30.150;2022-07-29T00:03:21;9.07;;;4.44;;
61473;SDS011;53694;49.784;30.150;2022-07-29T00:04:22;10.25;;;4.61;;
61473;SDS011;53694;49.784;30.150;2022-07-29T00:05:24;11.83;;;5.41;;
61473;SDS011;53694;49.784;30.150;2022-07-29T00:06:26;8.69;;;4.17;;
61473;SDS011;53694;49.784;30.150;2022-07-29T00:07:28;7.61;;;4.28;;
61473;SDS011;53694;49.784;30.150;2022-07-29T00:08:30;7.87;;;3.41;;
61473;SDS011;53694;49.784;30.150;2022-07-29T00:09:31;6.96;;;3.24;;
61473;SDS011;53694;49.784;30.150;2022-07-29T00:10:33;11.91;;;3.89;;
61473;SDS011;53694;49.784;30.150;2022-07-29T00:11:35;10.20;;;3.83;;
61473;SDS011;53694;49.784;30.150;2022-07-29T00:12:37;8.78;;;3.82;;
61473;SDS011;53694;49.784;30.150;2022-07-29T00:13:38;8.75;;;3.78;;
61473;SDS011;53694;49.784;30.150;2022-07-29T00:14:40;9.09;;;4.06;;
61473;SDS011;53694;49.784;30.150;2022-07-29T00:15:42;8.96;;;4.03;;
61473;SDS011;53694;49.784;30.150;2022-07-29T00:16:44;10.05;;;3.89;;
61473;SDS011;53694;49.784;30.150;2022-07-29T00:17:45;7.80;;;4.18;;
61473;SDS011;53694;49.784;30.150;2022-07-29T00:18:47;10.76;;;4.41;;
61473;SDS011;53694;49.784;30.150;2022-07-29T00:19:49;10.79;;;4.11;;
61473;SDS011;53694;49.784;30.150;2022-07-29T00:20:50;7.59;;;4.49;;
61473;SDS011;53694;49.784;30.150;2022-07-29T00:21:52;8.65;;;4.26;;
61473;SDS011;53694;49.784;30.150;2022-07-29T00:22:54;8.21;;;4.03;;
61473;SDS011;53694;49.784;30.150;2022-07-29T00:23:57;10.99;;;4.63;;
61473;SDS011;53694;49.784;30.150;2022-07-29T00:24:58;7.82;;;4.29;;
61473;SDS011;53694;49.784;30.150;2022-07-29T00:26:00;9.76;;;4.96;;
61473;SDS011;53694;49.784;30.150;2022-07-29T00:27:01;9.84;;;4.97;;
61473;SDS011;53694;49.784;30.150;2022-07-29T00:28:03;8.25;;;5.10;;
61473;SDS011;53694;49.784;30.150;2022-07-29T00:29:05;10.49;;;5.67;;
61473;SDS011;53694;49.784;30.150;2022-07-29T00:30:08;9.34;;;5.28;;
61473;SDS011;53694;49.784;30.150;2022-07-29T00:31:10;9.11;;;5.72;;
61473;SDS011;53694;49.784;30.150;2022-07-29T00:32:11;9.64;;;5.02;;
61473;SDS011;53694;49.784;30.150;2022-07-29T00:33:13;7.56;;;5.11;;
61473;SDS011;53694;49.784;30.150;2022-07-29T00:34:15;9.66;;;4.70;;
61473;SDS011;53694;49.784;30.150;2022-07-29T00:35:16;8.79;;;5.79;;
61473;SDS011;53694;49.784;30.150;2022-07-29T00:36:19;7.48;;;4.81;;
61473;SDS011;53694;49.784;30.150;2022-07-29T00:37:20;8.86;;;4.10;;
61473;SDS011;53694;49.784;30.150;2022-07-29T00:38:22;13.17;;;5.00;;
61473;SDS011;53694;49.784;30.150;2022-07-29T00:39:24;8.89;;;4.77;;
61473;SDS011;53694;49.784;30.150;2022-07-29T00:40:27;8.64;;;4.97;;
61473;SDS011;53694;49.784;30.150;2022-07-29T00:41:29;10.93;;;4.32;;
61473;SDS011;53694;49.784;30.150;2022-07-29T00:42:31;9.05;;;4.60;;
61473;SDS011;53694;49.784;30.150;2022-07-29T00:43:36;7.86;;;4.04;;
61473;SDS011;53694;49.784;30.150;2022-07-29T00:44:38;12.47;;;4.89;;
61473;SDS011;53694;49.784;30.150;2022-07-29T00:45:41;7.08;;;4.49;;
61473;SDS011;53694;49.784;30.150;2022-07-29T00:46:43;9.25;;;4.36;;
61473;SDS011;53694;49.784;30.150;2022-07-29T00:47:45;9.07;;;4.27;;
61473;SDS011;53694;49.784;30.150;2022-07-29T00:48:46;7.09;;;4.41;;
61473;SDS011;53694;49.784;30.150;2022-07-29T00:49:48;8.64;;;4.74;;
61473;SDS011;53694;49.784;30.150;2022-07-29T00:50:50;12.25;;;4.24;;
61473;SDS011;53694;49.784;30.150;2022-07-29T00:51:52;10.40;;;4.48;;
61473;SDS011;53694;49.784;30.150;2022-07-29T00:52:54;8.77;;;4.23;;
61473;SDS011;53694;49.784;30.150;2022-07-29T00:53:56;7.61;;;4.19;;
61473;SDS011;53694;49.784;30.150;2022-07-29T00:54:58;6.37;;;3.72;;
61473;SDS011;53694;49.784;30.150;2022-07-29T00:55:59;6.80;;;3.99;;
61473;SDS011;53694;49.784;30.150;2022-07-29T00:57:01;6.75;;;3.25;;
61473;SDS011;53694;49.784;30.150;2022-07-29T00:58:03;8.64;;;3.47;;
61473;SDS011;53694;49.784;30.150;2022-07-29T00:59:05;7.09;;;3.51;;
61473;SDS011;53694;49.784;30.150;2022-07-29T01:00:08;6.58;;;3.65;;
61473;SDS011;53694;49.784;30.150;2022-07-29T01:01:12;7.72;;;4.08;;
61473;SDS011;53694;49.784;30.150;2022-07-29T01:02:13;6.55;;;3.91;;
61473;SDS011;53694;49.784;30.150;2022-07-29T01:03:15;7.10;;;4.06;;
61473;SDS011;53694;49.784;30.150;2022-07-29T01:04:17;6.97;;;3.95;;
61473;SDS011;53694;49.784;30.150;2022-07-29T01:05:20;10.30;;;3.99;;
61473;SDS011;53694;49.784;30.150;2022-07-29T01:06:25;7.80;;;4.42;;
61473;SDS011;53694;49.784;30.150;2022-07-29T01:07:28;10.69;;;4.67;;
61473;SDS011;53694;49.784;30.150;2022-07-29T01:08:31;9.53;;;4.67;;
61473;SDS011;53694;49.784;30.150;2022-07-29T01:09:34;7.11;;;4.15;;
61473;SDS011;53694;49.784;30.150;2022-07-29T01:10:38;6.65;;;4.23;;
61473;SDS011;53694;49.784;30.150;2022-07-29T01:11:42;10.22;;;4.69;;
61473;SDS011;53694;49.784;30.150;2022-07-29T01:12:46;9.91;;;4.83;;
61473;SDS011;53694;49.784;30.150;2022-07-29T01:13:50;8.59;;;4.89;;
61473;SDS011;53694;49.784;30.150;2022-07-29T01:14:54;10.41;;;4.97;;
61473;SDS011;53694;49.784;30.150;2022-07-29T01:15:57;8.09;;;4.49;;
61473;SDS011;53694;49.784;30.150;2022-07-29T01:17:12;8.28;;;4.53;;
61473;SDS011;53694;49.784;30.150;2022-07-29T01:18:34;9.46;;;4.75;;
61473;SDS011;53694;49.784;30.150;2022-07-29T01:21:24;14.18;;;6.35;;
61473;SDS011;53694;49.784;30.150;2022-07-29T01:25:39;9.04;;;4.64;;
61473;SDS011;53694;49.784;30.150;2022-07-29T01:26:56;6.44;;;3.19;;
61473;SDS011;53694;49.784;30.150;2022-07-29T01:28:05;7.71;;;3.49;;
61473;SDS011;53694;49.784;30.150;2022-07-29T01:30:27;7.36;;;4.03;;
61473;SDS011;53694;49.784;30.150;2022-07-29T01:31:42;8.30;;;4.13;;
61473;SDS011;53694;49.784;30.150;2022-07-29T01:32:58;7.27;;;4.09;;
61473;SDS011;53694;49.784;30.150;2022-07-29T01:34:02;9.49;;;4.38;;
61473;SDS011;53694;49.784;30.150;2022-07-29T01:35:10;8.96;;;4.18;;
61473;SDS011;53694;49.784;30.150;2022-07-29T01:36:13;8.64;;;4.10;;
61473;SDS011;53694;49.784;30.150;2022-07-29T01:37:36;9.76;;;4.75;;
61473;SDS011;53694;49.784;30.150;2022-07-29T01:38:38;7.52;;;4.05;;
61473;SDS011;53694;49.784;30.150;2022-07-29T01:39:42;7.06;;;4.26;;
61473;SDS011;53694;49.784;30.150;2022-07-29T01:42:05;10.76;;;4.59;;
61473;SDS011;53694;49.784;30.150;2022-07-29T01:43:18;11.34;;;4.57;;
61473;SDS011;53694;49.784;30.150;2022-07-29T01:44:31;7.83;;;4.53;;
61473;SDS011;53694;49.784;30.150;2022-07-29T01:45:51;10.46;;;4.63;;
61473;SDS011;53694;49.784;30.150;2022-07-29T01:47:05;12.02;;;4.70;;
61473;SDS011;53694;49.784;30.150;2022-07-29T01:49:16;10.96;;;4.82;;
61473;SDS011;53694;49.784;30.150;2022-07-29T01:50:23;10.85;;;4.60;;
61473;SDS011;53694;49.784;30.150;2022-07-29T01:51:31;6.67;;;4.63;;
61473;SDS011;53694;49.784;30.150;2022-07-29T01:52:39;11.09;;;5.02;;
61473;SDS011;53694;49.784;30.150;2022-07-29T01:54:02;8.99;;;4.74;;
61473;SDS011;53694;49.784;30.150;2022-07-29T01:55:09;9.93;;;5.24;;
61473;SDS011;53694;49.784;30.150;2022-07-29T01:56:13;9.59;;;4.95;;
61473;SDS011;53694;49.784;30.150;2022-07-29T01:57:19;10.38;;;5.37;;
61473;SDS011;53694;49.784;30.150;2022-07-29T01:58:24;11.49;;;5.84;;
61473;SDS011;53694;49.784;30.150;2022-07-29T01:59:27;9.36;;;4.70;;
61473;SDS011;53694;49.784;30.150;2022-07-29T02:00:30;12.19;;;4.24;;
61473;SDS011;53694;49.784;30.150;2022-07-29T02:01:35;12.02;;;4.08;;
61473;SDS011;53694;49.784;30.150;2022-07-29T02:02:39;10.69;;;3.91;;
61473;SDS011;53694;49.784;30.150;2022-07-29T02:03:43;7.62;;;3.78;;
61473;SDS011;53694;49.784;30.150;2022-07-29T02:04:47;9.56;;;4.06;;
61473;SDS011;53694;49.784;30.150;2022-07-29T02:05:50;9.28;;;4.24;;
61473;SDS011;53694;49.784;30.150;2022-07-29T02:06:54;9.64;;;4.19;;
61473;SDS011;53694;49.784;30.150;2022-07-29T02:08:02;7.41;;;4.38;;
61473;SDS011;53694;49.784;30.150;2022-07-29T02:09:06;8.31;;;4.40;;
61473;SDS011;53694;49.784;30.150;2022-07-29T02:10:12;8.64;;;4.58;;
61473;SDS011;53694;49.784;30.150;2022-07-29T02:11:14;8.28;;;4.43;;
61473;SDS011;53694;49.784;30.150;2022-07-29T02:12:16;8.43;;;4.60;;
61473;SDS011;53694;49.784;30.150;2022-07-29T02:13:19;10.12;;;4.49;;
61473;SDS011;53694;49.784;30.150;2022-07-29T02:14:23;7.78;;;4.40;;
61473;SDS011;53694;49.784;30.150;2022-07-29T02:15:28;7.42;;;4.88;;
61473;SDS011;53694;49.784;30.150;2022-07-29T02:16:32;10.77;;;5.06;;
61473;SDS011;53694;49.784;30.150;2022-07-29T02:17:40;8.72;;;5.16;;
61473;SDS011;53694;49.784;30.150;2022-07-29T02:18:47;12.86;;;5.24;;
61473;SDS011;53694;49.784;30.150;2022-07-29T02:19:52;11.06;;;5.06;;
61473;SDS011;53694;49.784;30.150;2022-07-29T02:20:57;9.11;;;5.29;;
61473;SDS011;53694;49.784;30.150;2022-07-29T02:22:00;9.24;;;4.36;;
61473;SDS011;53694;49.784;30.150;2022-07-29T02:23:03;6.58;;;3.43;;
61473;SDS011;53694;49.784;30.150;2022-07-29T02:24:05;19.75;;;4.89;;
61473;SDS011;53694;49.784;30.150;2022-07-29T02:25:09;9.47;;;3.98;;
61473;SDS011;53694;49.784;30.150;2022-07-29T02:26:14;8.68;;;3.48;;
61473;SDS011;53694;49.784;30.150;2022-07-29T02:27:19;7.25;;;3.24;;
61473;SDS011;53694;49.784;30.150;2022-07-29T02:28:22;8.41;;;3.64;;
61473;SDS011;53694;49.784;30.150;2022-07-29T02:29:26;8.98;;;4.12;;
61473;SDS011;53694;49.784;30.150;2022-07-29T02:30:31;7.77;;;4.63;;
61473;SDS011;53694;49.784;30.150;2022-07-29T02:31:34;9.49;;;4.62;;
61473;SDS011;53694;49.784;30.150;2022-07-29T02:32:37;9.07;;;4.75;;
61473;SDS011;53694;49.784;30.150;2022-07-29T02:33:42;8.32;;;4.61;;
61473;SDS011;53694;49.784;30.150;2022-07-29T02:34:45;11.93;;;4.78;;
61473;SDS011;53694;49.784;30.150;2022-07-29T02:35:48;12.52;;;4.64;;
61473;SDS011;53694;49.784;30.150;2022-07-29T02:36:51;9.22;;;5.22;;
61473;SDS011;53694;49.784;30.150;2022-07-29T02:37:55;12.60;;;5.55;;
61473;SDS011;53694;49.784;30.150;2022-07-29T02:38:57;11.84;;;4.99;;
61473;SDS011;53694;49.784;30.150;2022-07-29T02:40:00;11.05;;;5.22;;
61473;SDS011;53694;49.784;30.150;2022-07-29T02:41:05;11.70;;;5.23;;
61473;SDS011;53694;49.784;30.150;2022-07-29T02:42:10;11.11;;;4.93;;
61473;SDS011;53694;49.784;30.150;2022-07-29T02:43:13;14.26;;;4.83;;
61473;SDS011;53694;49.784;30.150;2022-07-29T02:44:19;11.50;;;4.74;;
61473;SDS011;53694;49.784;30.150;2022-07-29T02:45:21;8.58;;;4.59;;
61473;SDS011;53694;49.784;30.150;2022-07-29T02:46:26;8.89;;;4.80;;
61473;SDS011;53694;49.784;30.150;2022-07-29T02:47:42;8.75;;;4.12;;
61473;SDS011;53694;49.784;30.150;2022-07-29T02:48:55;9.47;;;4.36;;
61473;SDS011;53694;49.784;30.150;2022-07-29T02:49:57;8.70;;;4.02;;
61473;SDS011;53694;49.784;30.150;2022-07-29T02:51:05;8.58;;;3.31;;
61473;SDS011;53694;49.784;30.150;2022-07-29T02:52:11;7.19;;;3.39;;
61473;SDS011;53694;49.784;30.150;2022-07-29T02:53:23;7.20;;;3.41;;
61473;SDS011;53694;49.784;30.150;2022-07-29T02:55:34;6.99;;;3.69;;
61473;SDS011;53694;49.784;30.150;2022-07-29T02:56:38;7.29;;;3.89;;
61473;SDS011;53694;49.784;30.150;2022-07-29T02:57:47;10.74;;;4.19;;
61473;SDS011;53694;49.784;30.150;2022-07-29T02:58:58;11.25;;;4.26;;
61473;SDS011;53694;49.784;30.150;2022-07-29T03:00:06;9.27;;;4.45;;
61473;SDS011;53694;49.784;30.150;2022-07-29T03:01:16;10.03;;;4.71;;
61473;SDS011;53694;49.784;30.150;2022-07-29T03:02:20;7.69;;;4.74;;
61473;SDS011;53694;49.784;30.150;2022-07-29T03:03:23;10.07;;;4.83;;
61473;SDS011;53694;49.784;30.150;2022-07-29T03:04:27;9.97;;;4.89;;
61473;SDS011;53694;49.784;30.150;2022-07-29T03:05:31;15.96;;;5.29;;
61473;SDS011;53694;49.784;30.150;2022-07-29T03:06:34;12.59;;;5.39;;
61473;SDS011;53694;49.784;30.150;2022-07-29T03:07:38;9.66;;;5.41;;
61473;SDS011;53694;49.784;30.150;2022-07-29T03:08:42;11.38;;;5.41;;
61473;SDS011;53694;49.784;30.150;2022-07-29T03:09:45;12.56;;;6.64;;
61473;SDS011;53694;49.784;30.150;2022-07-29T03:10:48;14.85;;;6.51;;
61473;SDS011;53694;49.784;30.150;2022-07-29T03:11:50;13.96;;;6.13;;
61473;SDS011;53694;49.784;30.150;2022-07-29T03:12:54;11.73;;;4.90;;
61473;SDS011;53694;49.784;30.150;2022-07-29T03:13:57;11.95;;;4.32;;
61473;SDS011;53694;49.784;30.150;2022-07-29T03:14:58;9.55;;;4.90;;
61473;SDS011;53694;49.784;30.150;2022-07-29T03:16:02;13.98;;;4.31;;
61473;SDS011;53694;49.784;30.150;2022-07-29T03:17:05;13.94;;;4.47;;
61473;SDS011;53694;49.784;30.150;2022-07-29T03:18:08;11.31;;;4.01;;
61473;SDS011;53694;49.784;30.150;2022-07-29T03:19:10;8.63;;;3.61;;
61473;SDS011;53694;49.784;30.150;2022-07-29T03:20:14;12.64;;;4.37;;
61473;SDS011;53694;49.784;30.150;2022-07-29T03:21:16;9.34;;;4.47;;
61473;SDS011;53694;49.784;30.150;2022-07-29T03:22:18;15.24;;;4.27;;
61473;SDS011;53694;49.784;30.150;2022-07-29T03:23:21;15.36;;;4.68;;
61473;SDS011;53694;49.784;30.150;2022-07-29T03:24:33;11.04;;;4.59;;
61473;SDS011;53694;49.784;30.150;2022-07-29T03:25:36;10.79;;;4.63;;
61473;SDS011;53694;49.784;30.150;2022-07-29T03:26:38;14.11;;;5.17;;
61473;SDS011;53694;49.784;30.150;2022-07-29T03:27:40;12.98;;;5.01;;
61473;SDS011;53694;49.784;30.150;2022-07-29T03:28:43;10.74;;;4.83;;
61473;SDS011;53694;49.784;30.150;2022-07-29T03:29:44;14.88;;;6.06;;
61473;SDS011;53694;49.784;30.150;2022-07-29T03:30:46;13.77;;;5.63;;
61473;SDS011;53694;49.784;30.150;2022-07-29T03:31:48;13.75;;;5.32;;
61473;SDS011;53694;49.784;30.150;2022-07-29T03:32:50;12.28;;;5.15;;
61473;SDS011;53694;49.784;30.150;2022-07-29T03:33:52;11.00;;;5.10;;
61473;SDS011;53694;49.784;30.150;2022-07-29T03:34:54;11.01;;;4.95;;
61473;SDS011;53694;49.784;30.150;2022-07-29T03:35:55;12.04;;;5.30;;
61473;SDS011;53694;49.784;30.150;2022-07-29T03:36:58;14.21;;;5.70;;
61473;SDS011;53694;49.784;30.150;2022-07-29T03:37:59;14.71;;;5.62;;
61473;SDS011;53694;49.784;30.150;2022-07-29T03:39:01;10.66;;;5.61;;
61473;SDS011;53694;49.784;30.150;2022-07-29T03:40:06;10.54;;;6.81;;
61473;SDS011;53694;49.784;30.150;2022-07-29T03:41:10;14.37;;;6.18;;
61473;SDS011;53694;49.784;30.150;2022-07-29T03:42:14;11.61;;;4.80;;
61473;SDS011;53694;49.784;30.150;2022-07-29T03:43:19;9.42;;;4.67;;
61473;SDS011;53694;49.784;30.150;2022-07-29T03:44:23;12.16;;;4.77;;
61473;SDS011;53694;49.784;30.150;2022-07-29T03:45:27;9.16;;;4.41;;
61473;SDS011;53694;49.784;30.150;2022-07-29T03:46:33;9.18;;;4.14;;
61473;SDS011;53694;49.784;30.150;2022-07-29T03:47:38;12.49;;;4.72;;
61473;SDS011;53694;49.784;30.150;2022-07-29T03:48:42;14.53;;;7.99;;
61473;SDS011;53694;49.784;30.150;2022-07-29T03:49:47;11.24;;;6.17;;
61473;SDS011;53694;49.784;30.150;2022-07-29T03:50:51;11.25;;;5.75;;
61473;SDS011;53694;49.784;30.150;2022-07-29T03:51:53;14.85;;;6.26;;
61473;SDS011;53694;49.784;30.150;2022-07-29T03:52:55;13.01;;;7.41;;
61473;SDS011;53694;49.784;30.150;2022-07-29T03:53:58;12.46;;;5.99;;
61473;SDS011;53694;49.784;30.150;2022-07-29T03:54:59;11.25;;;5.97;;
61473;SDS011;53694;49.784;30.150;2022-07-29T03:56:02;18.09;;;5.84;;
61473;SDS011;53694;49.784;30.150;2022-07-29T03:57:06;14.85;;;5.39;;
61473;SDS011;53694;49.784;30.150;2022-07-29T03:58:09;14.43;;;6.83;;
61473;SDS011;53694;49.784;30.150;2022-07-29T03:59:12;10.80;;;5.62;;
61473;SDS011;53694;49.784;30.150;2022-07-29T04:00:17;15.07;;;6.02;;
61473;SDS011;53694;49.784;30.150;2022-07-29T04:01:19;21.17;;;6.48;;
61473;SDS011;53694;49.784;30.150;2022-07-29T04:02:22;16.67;;;6.71;;
61473;SDS011;53694;49.784;30.150;2022-07-29T04:03:25;16.19;;;6.89;;
61473;SDS011;53694;49.784;30.150;2022-07-29T04:04:27;14.27;;;6.36;;
61473;SDS011;53694;49.784;30.150;2022-07-29T04:05:29;13.39;;;6.20;;
61473;SDS011;53694;49.784;30.150;2022-07-29T04:06:44;17.22;;;6.83;;
61473;SDS011;53694;49.784;30.150;2022-07-29T04:07:44;15.77;;;6.94;;
61473;SDS011;53694;49.784;30.150;2022-07-29T04:08:47;11.80;;;5.50;;
61473;SDS011;53694;49.784;30.150;2022-07-29T04:09:48;16.11;;;5.52;;
61473;SDS011;53694;49.784;30.150;2022-07-29T04:10:50;15.15;;;5.50;;
61473;SDS011;53694;49.784;30.150;2022-07-29T04:11:52;17.64;;;5.49;;
61473;SDS011;53694;49.784;30.150;2022-07-29T04:12:54;10.66;;;4.41;;
61473;SDS011;53694;49.784;30.150;2022-07-29T04:13:55;12.69;;;5.21;;
61473;SDS011;53694;49.784;30.150;2022-07-29T04:14:57;14.80;;;5.46;;
61473;SDS011;53694;49.784;30.150;2022-07-29T04:15:59;15.11;;;5.19;;
61473;SDS011;53694;49.784;30.150;2022-07-29T04:17:01;15.81;;;5.25;;
61473;SDS011;53694;49.784;30.150;2022-07-29T04:18:03;10.54;;;5.51;;
61473;SDS011;53694;49.784;30.150;2022-07-29T04:19:05;15.59;;;5.80;;
61473;SDS011;53694;49.784;30.150;2022-07-29T04:20:07;12.13;;;5.67;;
61473;SDS011;53694;49.784;30.150;2022-07-29T04:21:10;15.42;;;5.84;;
61473;SDS011;53694;49.784;30.150;2022-07-29T04:22:11;12.09;;;5.97;;
61473;SDS011;53694;49.784;30.150;2022-07-29T04:23:13;9.89;;;5.80;;
61473;SDS011;53694;49.784;30.150;2022-07-29T04:24:15;11.36;;;6.40;;
61473;SDS011;53694;49.784;30.150;2022-07-29T04:25:16;19.03;;;8.52;;
61473;SDS011;53694;49.784;30.150;2022-07-29T04:26:18;15.73;;;7.27;;
61473;SDS011;53694;49.784;30.150;2022-07-29T04:27:21;16.56;;;7.21;;
61473;SDS011;53694;49.784;30.150;2022-07-29T04:28:23;15.95;;;7.45;;
61473;SDS011;53694;49.784;30.150;2022-07-29T04:29:24;15.66;;;7.10;;
61473;SDS011;53694;49.784;30.150;2022-07-29T04:30:26;16.24;;;7.29;;
61473;SDS011;53694;49.784;30.150;2022-07-29T04:31:29;17.81;;;6.73;;
61473;SDS011;53694;49.784;30.150;2022-07-29T04:32:30;16.66;;;7.49;;
61473;SDS011;53694;49.784;30.150;2022-07-29T04:33:32;15.66;;;7.07;;
61473;SDS011;53694;49.784;30.150;2022-07-29T04:34:34;14.14;;;6.47;;
61473;SDS011;53694;49.784;30.150;2022-07-29T04:35:36;12.74;;;7.17;;
61473;SDS011;53694;49.784;30.150;2022-07-29T04:36:38;12.61;;;7.41;;
61473;SDS011;53694;49.784;30.150;2022-07-29T04:37:40;14.04;;;6.98;;
61473;SDS011;53694;49.784;30.150;2022-07-29T04:38:42;13.76;;;7.27;;
61473;SDS011;53694;49.784;30.150;2022-07-29T04:39:44;15.32;;;7.05;;
61473;SDS011;53694;49.784;30.150;2022-07-29T04:40:46;15.38;;;6.81;;
61473;SDS011;53694;49.784;30.150;2022-07-29T04:41:48;15.35;;;7.41;;
61473;SDS011;53694;49.784;30.150;2022-07-29T04:42:50;12.34;;;7.92;;
61473;SDS011;53694;49.784;30.150;2022-07-29T04:43:51;12.96;;;8.40;;
61473;SDS011;53694;49.784;30.150;2022-07-29T04:44:53;16.64;;;8.64;;
61473;SDS011;53694;49.784;30.150;2022-07-29T04:45:55;12.53;;;7.12;;
61473;SDS011;53694;49.784;30.150;2022-07-29T04:46:57;17.37;;;8.71;;
61473;SDS011;53694;49.784;30.150;2022-07-29T04:47:59;17.24;;;7.27;;
61473;SDS011;53694;49.784;30.150;2022-07-29T04:49:02;16.14;;;7.19;;
61473;SDS011;53694;49.784;30.150;2022-07-29T04:50:04;15.66;;;6.59;;
61473;SDS011;53694;49.784;30.150;2022-07-29T04:51:07;12.31;;;6.28;;
61473;SDS011;53694;49.784;30.150;2022-07-29T04:52:08;12.69;;;5.45;;
61473;SDS011;53694;49.784;30.150;2022-07-29T04:53:10;7.48;;;4.52;;
61473;SDS011;53694;49.784;30.150;2022-07-29T04:54:11;10.79;;;4.94;;
61473;SDS011;53694;49.784;30.150;2022-07-29T04:55:13;14.13;;;5.39;;
61473;SDS011;53694;49.784;30.150;2022-07-29T04:56:16;9.95;;;4.38;;
61473;SDS011;53694;49.784;30.150;2022-07-29T04:57:18;8.96;;;4.31;;
61473;SDS011;53694;49.784;30.150;2022-07-29T04:58:20;11.79;;;4.84;;
61473;SDS011;53694;49.784;30.150;2022-07-29T04:59:21;13.06;;;4.52;;
61473;SDS011;53694;49.784;30.150;2022-07-29T05:00:25;10.68;;;4.50;;
61473;SDS011;53694;49.784;30.150;2022-07-29T05:01:27;11.73;;;5.21;;
61473;SDS011;53694;49.784;30.150;2022-07-29T05:02:28;9.19;;;4.35;;
61473;SDS011;53694;49.784;30.150;2022-07-29T05:03:30;8.34;;;4.01;;
61473;SDS011;53694;49.784;30.150;2022-07-29T05:04:32;10.77;;;4.08;;
61473;SDS011;53694;49.784;30.150;2022-07-29T05:05:33;15.71;;;7.58;;
61473;SDS011;53694;49.784;30.150;2022-07-29T05:06:35;9.30;;;5.25;;
61473;SDS011;53694;49.784;30.150;2022-07-29T05:07:37;17.81;;;9.41;;
61473;SDS011;53694;49.784;30.150;2022-07-29T05:08:39;12.11;;;5.85;;
61473;SDS011;53694;49.784;30.150;2022-07-29T05:09:40;10.26;;;4.77;;
61473;SDS011;53694;49.784;30.150;2022-07-29T05:10:42;11.95;;;5.35;;
61473;SDS011;53694;49.784;30.150;2022-07-29T05:11:44;11.33;;;4.86;;
61473;SDS011;53694;49.784;30.150;2022-07-29T05:12:45;10.92;;;4.76;;
61473;SDS011;53694;49.784;30.150;2022-07-29T05:13:47;9.81;;;4.71;;
61473;SDS011;53694;49.784;30.150;2022-07-29T05:14:49;16.35;;;5.26;;
61473;SDS011;53694;49.784;30.150;2022-07-29T05:15:50;12.05;;;4.69;;
61473;SDS011;53694;49.784;30.150;2022-07-29T05:16:52;9.21;;;4.54;;
61473;SDS011;53694;49.784;30.150;2022-07-29T05:17:54;9.68;;;4.44;;
61473;SDS011;53694;49.784;30.150;2022-07-29T05:18:55;7.84;;;3.86;;
61473;SDS011;53694;49.784;30.150;2022-07-29T05:19:57;7.82;;;3.61;;
61473;SDS011;53694;49.784;30.150;2022-07-29T05:20:59;7.45;;;4.19;;
61473;SDS011;53694;49.784;30.150;2022-07-29T05:22:00;11.30;;;4.82;;
61473;SDS011;53694;49.784;30.150;2022-07-29T05:23:02;8.59;;;5.07;;
61473;SDS011;53694;49.784;30.150;2022-07-29T05:24:05;8.08;;;3.68;;
61473;SDS011;53694;49.784;30.150;2022-07-29T05:25:07;12.07;;;5.34;;
61473;SDS011;53694;49.784;30.150;2022-07-29T05:26:09;10.11;;;5.09;;
61473;SDS011;53694;49.784;30.150;2022-07-29T05:27:11;7.58;;;3.84;;
61473;SDS011;53694;49.784;30.150;2022-07-29T05:28:12;6.81;;;4.15;;
61473;SDS011;53694;49.784;30.150;2022-07-29T05:29:14;14.33;;;4.31;;
61473;SDS011;53694;49.784;30.150;2022-07-29T05:30:17;8.78;;;4.04;;
61473;SDS011;53694;49.784;30.150;2022-07-29T05:31:19;7.71;;;3.31;;
61473;SDS011;53694;49.784;30.150;2022-07-29T05:32:21;9.94;;;3.09;;
61473;SDS011;53694;49.784;30.150;2022-07-29T05:33:23;5.62;;;3.01;;
61473;SDS011;53694;49.784;30.150;2022-07-29T05:34:24;8.59;;;3.78;;
61473;SDS011;53694;49.784;30.150;2022-07-29T05:35:26;6.66;;;3.31;;
61473;SDS011;53694;49.784;30.150;2022-07-29T05:36:28;8.00;;;3.33;;
61473;SDS011;53694;49.784;30.150;2022-07-29T05:37:29;7.97;;;3.19;;
61473;SDS011;53694;49.784;30.150;2022-07-29T05:38:31;8.33;;;3.04;;
61473;SDS011;53694;49.784;30.150;2022-07-29T05:39:33;9.14;;;2.91;;
61473;SDS011;53694;49.784;30.150;2022-07-29T05:40:34;9.42;;;3.49;;
61473;SDS011;53694;49.784;30.150;2022-07-29T05:41:36;4.59;;;2.59;;
61473;SDS011;53694;49.784;30.150;2022-07-29T05:42:38;7.89;;;4.75;;
61473;SDS011;53694;49.784;30.150;2022-07-29T05:43:40;11.11;;;5.99;;
61473;SDS011;53694;49.784;30.150;2022-07-29T05:44:42;10.27;;;7.04;;
61473;SDS011;53694;49.784;30.150;2022-07-29T05:45:43;10.90;;;7.37;;
61473;SDS011;53694;49.784;30.150;2022-07-29T05:46:45;13.11;;;8.67;;
61473;SDS011;53694;49.784;30.150;2022-07-29T05:47:47;11.88;;;5.89;;
61473;SDS011;53694;49.784;30.150;2022-07-29T05:48:48;8.71;;;4.67;;
61473;SDS011;53694;49.784;30.150;2022-07-29T05:49:50;11.84;;;6.91;;
61473;SDS011;53694;49.784;30.150;2022-07-29T05:50:53;9.35;;;4.04;;
61473;SDS011;53694;49.784;30.150;2022-07-29T05:51:55;8.30;;;2.79;;
61473;SDS011;53694;49.784;30.150;2022-07-29T05:52:56;5.99;;;2.37;;
61473;SDS011;53694;49.784;30.150;2022-07-29T05:53:58;8.33;;;2.99;;
61473;SDS011;53694;49.784;30.150;2022-07-29T05:55:00;4.94;;;2.16;;
61473;SDS011;53694;49.784;30.150;2022-07-29T05:56:05;4.32;;;1.77;;
61473;SDS011;53694;49.784;30.150;2022-07-29T05:57:07;8.29;;;2.15;;
61473;SDS011;53694;49.784;30.150;2022-07-29T05:58:08;4.17;;;1.84;;
61473;SDS011;53694;49.784;30.150;2022-07-29T05:59:10;4.11;;;1.90;;
61473;SDS011;53694;49.784;30.150;2022-07-29T06:00:13;5.97;;;1.79;;
61473;SDS011;53694;49.784;30.150;2022-07-29T06:01:15;4.59;;;2.15;;
61473;SDS011;53694;49.784;30.150;2022-07-29T06:02:17;6.15;;;2.35;;
61473;SDS011;53694;49.784;30.150;2022-07-29T06:03:19;8.03;;;2.72;;
61473;SDS011;53694;49.784;30.150;2022-07-29T06:04:20;5.31;;;2.16;;
61473;SDS011;53694;49.784;30.150;2022-07-29T06:05:22;6.09;;;2.09;;
61473;SDS011;53694;49.784;30.150;2022-07-29T06:06:26;7.78;;;2.37;;
61473;SDS011;53694;49.784;30.150;2022-07-29T06:07:27;5.54;;;2.59;;
61473;SDS011;53694;49.784;30.150;2022-07-29T06:08:29;6.10;;;2.04;;
61473;SDS011;53694;49.784;30.150;2022-07-29T06:09:31;14.14;;;3.66;;
61473;SDS011;53694;49.784;30.150;2022-07-29T06:10:34;5.60;;;2.33;;
61473;SDS011;53694;49.784;30.150;2022-07-29T06:11:37;7.94;;;2.52;;
61473;SDS011;53694;49.784;30.150;2022-07-29T06:12:38;5.11;;;1.81;;
61473;SDS011;53694;49.784;30.150;2022-07-29T06:13:40;5.84;;;1.72;;
61473;SDS011;53694;49.784;30.150;2022-07-29T06:14:42;4.70;;;2.20;;
61473;SDS011;53694;49.784;30.150;2022-07-29T06:15:43;7.15;;;1.90;;
61473;SDS011;53694;49.784;30.150;2022-07-29T06:16:45;11.71;;;2.39;;
61473;SDS011;53694;49.784;30.150;2022-07-29T06:17:47;7.67;;;2.35;;
61473;SDS011;53694;49.784;30.150;2022-07-29T06:18:48;7.09;;;2.15;;
61473;SDS011;53694;49.784;30.150;2022-07-29T06:19:50;4.80;;;1.93;;
61473;SDS011;53694;49.784;30.150;2022-07-29T06:20:55;6.80;;;2.02;;
61473;SDS011;53694;49.784;30.150;2022-07-29T06:21:57;4.79;;;2.02;;
61473;SDS011;53694;49.784;30.150;2022-07-29T06:22:59;4.71;;;1.81;;